sensor_id;sensor_type;location;lat;lon;timestamp;temperature;humidity
42833;DHT22;64089;51.478;5.692;2023-04-29T00:01:17;10.30;99.90
42833;DHT22;64089;51.478;5.692;2023-04-29T00:03:43;10.40;99.90
42833;DHT22;64089;51.478;5.692;2023-04-29T00:06:08;10.40;99.90
42833;DHT22;64089;51.478;5.692;2023-04-29T00:08:35;10.30;99.90
42833;DHT22;64089;51.478;5.692;2023-04-29T00:11:01;10.30;99.90
42833;DHT22;64089;51.478;5.692;2023-04-29T00:13:27;10.30;99.90
42833;DHT22;64089;51.478;5.692;2023-04-29T00:15:53;10.30;99.90
42833;DHT22;64089;51.478;5.692;2023-04-29T00:18:18;10.30;99.90
42833;DHT22;64089;51.478;5.692;2023-04-29T00:20:44;10.20;99.90
42833;DHT22;64089;51.478;5.692;2023-04-29T00:23:09;10.20;99.90
42833;DHT22;64089;51.478;5.692;2023-04-29T00:25:35;10.10;99.90
42833;DHT22;64089;51.478;5.692;2023-04-29T00:28:02;10.10;99.90
42833;DHT22;64089;51.478;5.692;2023-04-29T00:30:28;10.00;99.90
42833;DHT22;64089;51.478;5.692;2023-04-29T00:32:55;10.00;99.90
42833;DHT22;64089;51.478;5.692;2023-04-29T00:35:21;10.00;99.90
42833;DHT22;64089;51.478;5.692;2023-04-29T00:37:46;10.00;99.90
42833;DHT22;64089;51.478;5.692;2023-04-29T00:40:12;10.00;99.90
42833;DHT22;64089;51.478;5.692;2023-04-29T00:42:39;9.90;99.90
42833;DHT22;64089;51.478;5.692;2023-04-29T00:45:08;9.90;99.90
42833;DHT22;64089;51.478;5.692;2023-04-29T00:47:36;9.90;99.90
42833;DHT22;64089;51.478;5.692;2023-04-29T00:50:01;9.90;99.90
42833;DHT22;64089;51.478;5.692;2023-04-29T00:52:29;10.00;99.90
42833;DHT22;64089;51.478;5.692;2023-04-29T00:54:56;9.90;99.90
42833;DHT22;64089;51.478;5.692;2023-04-29T00:57:22;9.80;99.90
42833;DHT22;64089;51.478;5.692;2023-04-29T00:59:48;9.80;99.90
42833;DHT22;64089;51.478;5.692;2023-04-29T01:02:14;9.70;99.90
42833;DHT22;64089;51.478;5.692;2023-04-29T01:04:41;9.70;99.90
42833;DHT22;64089;51.478;5.692;2023-04-29T01:12:39;9.60;99.90
42833;DHT22;64089;51.478;5.692;2023-04-29T01:15:11;9.60;99.90
42833;DHT22;64089;51.478;5.692;2023-04-29T01:17:50;9.60;99.90
42833;DHT22;64089;51.478;5.692;2023-04-29T01:20:21;9.60;99.90
42833;DHT22;64089;51.478;5.692;2023-04-29T01:22:48;9.70;99.90
42833;DHT22;64089;51.478;5.692;2023-04-29T01:25:13;9.60;99.90
42833;DHT22;64089;51.478;5.692;2023-04-29T01:27:54;9.70;99.90
42833;DHT22;64089;51.478;5.692;2023-04-29T01:30:36;9.60;99.90
42833;DHT22;64089;51.478;5.692;2023-04-29T01:41:26;9.70;99.90
42833;DHT22;64089;51.478;5.692;2023-04-29T01:43:57;9.60;99.90
42833;DHT22;64089;51.478;5.692;2023-04-29T01:46:23;9.60;99.90
42833;DHT22;64089;51.478;5.692;2023-04-29T01:48:52;9.60;99.90
42833;DHT22;64089;51.478;5.692;2023-04-29T01:51:18;9.50;99.90
42833;DHT22;64089;51.478;5.692;2023-04-29T01:53:43;9.50;99.90
42833;DHT22;64089;51.478;5.692;2023-04-29T01:56:09;9.50;99.90
42833;DHT22;64089;51.478;5.692;2023-04-29T01:58:34;9.50;99.90
42833;DHT22;64089;51.478;5.692;2023-04-29T02:01:00;9.50;99.90
42833;DHT22;64089;51.478;5.692;2023-04-29T02:03:26;9.50;99.90
42833;DHT22;64089;51.478;5.692;2023-04-29T02:05:52;9.50;99.90
42833;DHT22;64089;51.478;5.692;2023-04-29T02:08:17;9.50;99.90
42833;DHT22;64089;51.478;5.692;2023-04-29T02:10:57;9.50;99.90
42833;DHT22;64089;51.478;5.692;2023-04-29T02:13:23;9.50;99.90
42833;DHT22;64089;51.478;5.692;2023-04-29T02:15:49;9.50;99.90
42833;DHT22;64089;51.478;5.692;2023-04-29T02:18:14;9.50;99.90
42833;DHT22;64089;51.478;5.692;2023-04-29T02:20:41;9.50;99.90
42833;DHT22;64089;51.478;5.692;2023-04-29T02:23:10;9.50;99.90
42833;DHT22;64089;51.478;5.692;2023-04-29T02:25:35;9.50;99.90
42833;DHT22;64089;51.478;5.692;2023-04-29T02:28:01;9.50;99.90
42833;DHT22;64089;51.478;5.692;2023-04-29T02:30:27;9.50;99.90
42833;DHT22;64089;51.478;5.692;2023-04-29T02:32:52;9.50;99.90
42833;DHT22;64089;51.478;5.692;2023-04-29T02:35:18;9.50;99.90
42833;DHT22;64089;51.478;5.692;2023-04-29T02:37:44;9.50;99.90
42833;DHT22;64089;51.478;5.692;2023-04-29T02:40:10;9.50;99.90
42833;DHT22;64089;51.478;5.692;2023-04-29T02:42:35;9.50;99.90
42833;DHT22;64089;51.478;5.692;2023-04-29T02:45:02;9.50;99.90
42833;DHT22;64089;51.478;5.692;2023-04-29T02:47:28;9.40;99.90
42833;DHT22;64089;51.478;5.692;2023-04-29T02:49:53;9.40;99.90
42833;DHT22;64089;51.478;5.692;2023-04-29T02:52:19;9.40;99.90
42833;DHT22;64089;51.478;5.692;2023-04-29T02:54:45;9.40;99.90
42833;DHT22;64089;51.478;5.692;2023-04-29T02:57:10;9.40;99.90
42833;DHT22;64089;51.478;5.692;2023-04-29T02:59:36;9.30;99.90
42833;DHT22;64089;51.478;5.692;2023-04-29T03:02:02;9.40;99.90
42833;DHT22;64089;51.478;5.692;2023-04-29T03:04:28;9.40;99.90
42833;DHT22;64089;51.478;5.692;2023-04-29T03:06:55;9.30;99.90
42833;DHT22;64089;51.478;5.692;2023-04-29T03:09:21;9.30;99.90
42833;DHT22;64089;51.478;5.692;2023-04-29T03:11:48;9.30;99.90
42833;DHT22;64089;51.478;5.692;2023-04-29T03:14:13;9.30;99.90
42833;DHT22;64089;51.478;5.692;2023-04-29T03:16:39;9.40;99.90
42833;DHT22;64089;51.478;5.692;2023-04-29T03:19:04;9.40;99.90
42833;DHT22;64089;51.478;5.692;2023-04-29T03:21:30;9.40;99.90
42833;DHT22;64089;51.478;5.692;2023-04-29T03:23:57;9.40;99.90
42833;DHT22;64089;51.478;5.692;2023-04-29T03:26:22;9.40;99.90
42833;DHT22;64089;51.478;5.692;2023-04-29T03:28:49;9.40;99.90
42833;DHT22;64089;51.478;5.692;2023-04-29T03:31:15;9.40;99.90
42833;DHT22;64089;51.478;5.692;2023-04-29T03:33:42;9.40;99.90
42833;DHT22;64089;51.478;5.692;2023-04-29T03:36:07;9.40;99.90
42833;DHT22;64089;51.478;5.692;2023-04-29T03:38:33;9.40;99.90
42833;DHT22;64089;51.478;5.692;2023-04-29T03:40:59;9.50;99.90
42833;DHT22;64089;51.478;5.692;2023-04-29T03:43:25;9.40;99.90
42833;DHT22;64089;51.478;5.692;2023-04-29T03:45:51;9.40;99.90
42833;DHT22;64089;51.478;5.692;2023-04-29T03:48:17;9.30;99.90
42833;DHT22;64089;51.478;5.692;2023-04-29T03:50:43;9.30;99.90
42833;DHT22;64089;51.478;5.692;2023-04-29T03:53:08;9.20;99.90
42833;DHT22;64089;51.478;5.692;2023-04-29T03:55:34;9.20;99.90
42833;DHT22;64089;51.478;5.692;2023-04-29T03:58:00;9.20;99.90
42833;DHT22;64089;51.478;5.692;2023-04-29T04:00:26;9.20;99.90
42833;DHT22;64089;51.478;5.692;2023-04-29T04:02:55;9.20;99.90
42833;DHT22;64089;51.478;5.692;2023-04-29T04:05:21;9.20;99.90
42833;DHT22;64089;51.478;5.692;2023-04-29T04:07:52;9.20;99.90
42833;DHT22;64089;51.478;5.692;2023-04-29T04:10:18;9.20;99.90
42833;DHT22;64089;51.478;5.692;2023-04-29T04:12:44;9.20;99.90
42833;DHT22;64089;51.478;5.692;2023-04-29T04:15:10;9.20;99.90
42833;DHT22;64089;51.478;5.692;2023-04-29T04:17:36;9.20;99.90
42833;DHT22;64089;51.478;5.692;2023-04-29T04:20:01;9.20;99.90
42833;DHT22;64089;51.478;5.692;2023-04-29T04:22:27;9.20;99.90
42833;DHT22;64089;51.478;5.692;2023-04-29T04:24:55;9.20;99.90
42833;DHT22;64089;51.478;5.692;2023-04-29T04:27:21;9.20;99.90
42833;DHT22;64089;51.478;5.692;2023-04-29T04:29:47;9.20;99.90
42833;DHT22;64089;51.478;5.692;2023-04-29T04:32:13;9.20;99.90
42833;DHT22;64089;51.478;5.692;2023-04-29T04:34:38;9.20;99.90
42833;DHT22;64089;51.478;5.692;2023-04-29T04:37:04;9.20;99.90
42833;DHT22;64089;51.478;5.692;2023-04-29T04:39:31;9.20;99.90
42833;DHT22;64089;51.478;5.692;2023-04-29T04:41:57;9.20;99.90
42833;DHT22;64089;51.478;5.692;2023-04-29T04:44:22;9.10;99.90
42833;DHT22;64089;51.478;5.692;2023-04-29T04:46:50;9.20;99.90
42833;DHT22;64089;51.478;5.692;2023-04-29T04:49:16;9.20;99.90
42833;DHT22;64089;51.478;5.692;2023-04-29T04:51:44;9.20;99.90
42833;DHT22;64089;51.478;5.692;2023-04-29T04:54:10;9.20;99.90
42833;DHT22;64089;51.478;5.692;2023-04-29T04:56:36;9.20;99.90
42833;DHT22;64089;51.478;5.692;2023-04-29T04:59:02;9.20;99.90
42833;DHT22;64089;51.478;5.692;2023-04-29T05:01:28;9.20;99.90
42833;DHT22;64089;51.478;5.692;2023-04-29T05:03:54;9.20;99.90
42833;DHT22;64089;51.478;5.692;2023-04-29T05:06:20;9.20;99.90
42833;DHT22;64089;51.478;5.692;2023-04-29T05:08:45;9.20;99.90
42833;DHT22;64089;51.478;5.692;2023-04-29T05:11:21;9.20;99.90
42833;DHT22;64089;51.478;5.692;2023-04-29T05:13:47;9.20;99.90
42833;DHT22;64089;51.478;5.692;2023-04-29T05:16:13;9.30;99.90
42833;DHT22;64089;51.478;5.692;2023-04-29T05:18:39;9.30;99.90
42833;DHT22;64089;51.478;5.692;2023-04-29T05:21:04;9.30;99.90
42833;DHT22;64089;51.478;5.692;2023-04-29T05:23:30;9.30;99.90
42833;DHT22;64089;51.478;5.692;2023-04-29T05:25:56;9.30;99.90
42833;DHT22;64089;51.478;5.692;2023-04-29T05:28:21;9.30;99.90
42833;DHT22;64089;51.478;5.692;2023-04-29T05:30:50;9.40;99.90
42833;DHT22;64089;51.478;5.692;2023-04-29T05:33:16;9.40;99.90
42833;DHT22;64089;51.478;5.692;2023-04-29T05:35:42;9.40;99.90
42833;DHT22;64089;51.478;5.692;2023-04-29T05:38:07;9.40;99.90
42833;DHT22;64089;51.478;5.692;2023-04-29T05:40:33;9.40;99.90
42833;DHT22;64089;51.478;5.692;2023-04-29T05:42:59;9.50;99.90
42833;DHT22;64089;51.478;5.692;2023-04-29T05:45:24;9.40;99.90
42833;DHT22;64089;51.478;5.692;2023-04-29T05:47:50;9.40;99.90
42833;DHT22;64089;51.478;5.692;2023-04-29T05:50:16;9.40;99.90
42833;DHT22;64089;51.478;5.692;2023-04-29T05:52:42;9.40;99.90
42833;DHT22;64089;51.478;5.692;2023-04-29T05:55:08;9.40;99.90
42833;DHT22;64089;51.478;5.692;2023-04-29T05:57:34;9.40;99.90
42833;DHT22;64089;51.478;5.692;2023-04-29T05:59:59;9.40;99.90
42833;DHT22;64089;51.478;5.692;2023-04-29T06:02:26;9.50;99.90
42833;DHT22;64089;51.478;5.692;2023-04-29T06:04:52;9.50;99.90
42833;DHT22;64089;51.478;5.692;2023-04-29T06:07:18;9.50;99.90
42833;DHT22;64089;51.478;5.692;2023-04-29T06:09:43;9.50;99.90
42833;DHT22;64089;51.478;5.692;2023-04-29T06:12:09;9.50;99.90
42833;DHT22;64089;51.478;5.692;2023-04-29T06:14:35;9.60;99.90
42833;DHT22;64089;51.478;5.692;2023-04-29T06:17:01;9.60;99.90
42833;DHT22;64089;51.478;5.692;2023-04-29T06:19:26;9.50;99.90
42833;DHT22;64089;51.478;5.692;2023-04-29T06:21:52;9.50;99.90
42833;DHT22;64089;51.478;5.692;2023-04-29T06:24:18;9.50;99.90
42833;DHT22;64089;51.478;5.692;2023-04-29T06:26:43;9.50;99.90
42833;DHT22;64089;51.478;5.692;2023-04-29T06:29:09;9.60;99.90
42833;DHT22;64089;51.478;5.692;2023-04-29T06:31:35;9.60;99.90
42833;DHT22;64089;51.478;5.692;2023-04-29T06:34:00;9.60;99.90
42833;DHT22;64089;51.478;5.692;2023-04-29T06:36:26;9.60;99.90
42833;DHT22;64089;51.478;5.692;2023-04-29T06:38:52;9.60;99.90
42833;DHT22;64089;51.478;5.692;2023-04-29T06:41:18;9.60;99.90
42833;DHT22;64089;51.478;5.692;2023-04-29T06:43:44;9.60;99.90
42833;DHT22;64089;51.478;5.692;2023-04-29T06:46:09;9.70;99.90
42833;DHT22;64089;51.478;5.692;2023-04-29T06:48:35;9.60;99.90
42833;DHT22;64089;51.478;5.692;2023-04-29T06:51:01;9.60;99.90
42833;DHT22;64089;51.478;5.692;2023-04-29T06:53:27;9.60;99.90
42833;DHT22;64089;51.478;5.692;2023-04-29T06:55:52;9.50;99.90
42833;DHT22;64089;51.478;5.692;2023-04-29T06:58:18;9.50;99.90
42833;DHT22;64089;51.478;5.692;2023-04-29T07:00:48;9.60;99.90
42833;DHT22;64089;51.478;5.692;2023-04-29T07:03:16;9.80;99.90
42833;DHT22;64089;51.478;5.692;2023-04-29T07:05:42;9.90;99.90
42833;DHT22;64089;51.478;5.692;2023-04-29T07:08:10;10.10;99.90
42833;DHT22;64089;51.478;5.692;2023-04-29T07:10:37;10.20;99.90
42833;DHT22;64089;51.478;5.692;2023-04-29T07:13:03;10.20;99.90
42833;DHT22;64089;51.478;5.692;2023-04-29T07:15:33;10.20;99.90
42833;DHT22;64089;51.478;5.692;2023-04-29T07:17:59;10.30;99.90
42833;DHT22;64089;51.478;5.692;2023-04-29T07:20:25;10.50;99.90
42833;DHT22;64089;51.478;5.692;2023-04-29T07:22:51;10.60;99.90
42833;DHT22;64089;51.478;5.692;2023-04-29T07:25:17;10.70;99.90
42833;DHT22;64089;51.478;5.692;2023-04-29T07:27:43;10.60;99.90
42833;DHT22;64089;51.478;5.692;2023-04-29T07:30:08;10.60;99.90
42833;DHT22;64089;51.478;5.692;2023-04-29T07:32:34;10.60;99.90
42833;DHT22;64089;51.478;5.692;2023-04-29T07:35:00;10.60;99.90
42833;DHT22;64089;51.478;5.692;2023-04-29T07:37:26;10.50;99.90
42833;DHT22;64089;51.478;5.692;2023-04-29T07:39:51;10.50;99.90
42833;DHT22;64089;51.478;5.692;2023-04-29T07:42:17;10.70;99.90
42833;DHT22;64089;51.478;5.692;2023-04-29T07:44:43;10.80;99.90
42833;DHT22;64089;51.478;5.692;2023-04-29T07:47:10;10.90;99.90
42833;DHT22;64089;51.478;5.692;2023-04-29T07:49:36;11.10;99.90
42833;DHT22;64089;51.478;5.692;2023-04-29T07:52:04;11.10;99.90
42833;DHT22;64089;51.478;5.692;2023-04-29T07:54:29;11.20;99.90
42833;DHT22;64089;51.478;5.692;2023-04-29T07:56:57;11.30;99.90
42833;DHT22;64089;51.478;5.692;2023-04-29T07:59:22;11.40;99.90
42833;DHT22;64089;51.478;5.692;2023-04-29T08:01:48;11.40;99.90
42833;DHT22;64089;51.478;5.692;2023-04-29T08:04:14;11.60;99.90
42833;DHT22;64089;51.478;5.692;2023-04-29T08:06:39;11.80;99.90
42833;DHT22;64089;51.478;5.692;2023-04-29T08:09:06;11.80;99.90
42833;DHT22;64089;51.478;5.692;2023-04-29T08:11:32;11.70;99.90
42833;DHT22;64089;51.478;5.692;2023-04-29T08:13:57;11.50;99.90
42833;DHT22;64089;51.478;5.692;2023-04-29T08:16:24;11.50;99.90
42833;DHT22;64089;51.478;5.692;2023-04-29T08:18:51;11.60;99.90
42833;DHT22;64089;51.478;5.692;2023-04-29T08:21:18;11.50;99.90
42833;DHT22;64089;51.478;5.692;2023-04-29T08:23:44;11.40;99.90
42833;DHT22;64089;51.478;5.692;2023-04-29T08:26:13;11.20;99.90
42833;DHT22;64089;51.478;5.692;2023-04-29T08:28:39;11.20;99.90
42833;DHT22;64089;51.478;5.692;2023-04-29T08:31:05;11.30;99.90
42833;DHT22;64089;51.478;5.692;2023-04-29T08:33:35;11.60;99.90
42833;DHT22;64089;51.478;5.692;2023-04-29T08:36:02;12.10;99.90
42833;DHT22;64089;51.478;5.692;2023-04-29T08:38:31;12.10;99.90
42833;DHT22;64089;51.478;5.692;2023-04-29T08:40:57;12.20;99.90
42833;DHT22;64089;51.478;5.692;2023-04-29T08:43:22;11.90;99.90
42833;DHT22;64089;51.478;5.692;2023-04-29T08:45:49;12.00;99.90
42833;DHT22;64089;51.478;5.692;2023-04-29T08:48:18;12.00;99.90
42833;DHT22;64089;51.478;5.692;2023-04-29T08:50:44;12.00;99.90
42833;DHT22;64089;51.478;5.692;2023-04-29T08:53:12;12.00;99.90
42833;DHT22;64089;51.478;5.692;2023-04-29T08:55:43;12.20;99.90
42833;DHT22;64089;51.478;5.692;2023-04-29T08:58:09;12.30;99.90
42833;DHT22;64089;51.478;5.692;2023-04-29T09:00:36;12.20;99.90
42833;DHT22;64089;51.478;5.692;2023-04-29T09:03:25;12.40;99.90
42833;DHT22;64089;51.478;5.692;2023-04-29T09:05:55;12.50;99.90
42833;DHT22;64089;51.478;5.692;2023-04-29T09:08:24;12.40;99.90
42833;DHT22;64089;51.478;5.692;2023-04-29T09:10:53;12.40;99.90
42833;DHT22;64089;51.478;5.692;2023-04-29T09:13:30;12.50;99.90
42833;DHT22;64089;51.478;5.692;2023-04-29T09:15:56;12.60;99.90
42833;DHT22;64089;51.478;5.692;2023-04-29T09:21:23;12.70;99.90
42833;DHT22;64089;51.478;5.692;2023-04-29T09:23:51;12.70;99.90
42833;DHT22;64089;51.478;5.692;2023-04-29T09:26:17;12.80;99.90
42833;DHT22;64089;51.478;5.692;2023-04-29T09:28:42;12.70;99.90
42833;DHT22;64089;51.478;5.692;2023-04-29T09:31:10;12.60;99.90
42833;DHT22;64089;51.478;5.692;2023-04-29T09:36:44;12.90;99.90
42833;DHT22;64089;51.478;5.692;2023-04-29T09:41:55;12.90;99.90
42833;DHT22;64089;51.478;5.692;2023-04-29T09:44:24;13.10;99.90
42833;DHT22;64089;51.478;5.692;2023-04-29T09:46:59;13.00;99.90
42833;DHT22;64089;51.478;5.692;2023-04-29T09:49:36;13.10;99.90
42833;DHT22;64089;51.478;5.692;2023-04-29T09:52:05;13.40;99.90
42833;DHT22;64089;51.478;5.692;2023-04-29T09:54:33;13.70;99.90
42833;DHT22;64089;51.478;5.692;2023-04-29T09:57:01;13.80;99.90
42833;DHT22;64089;51.478;5.692;2023-04-29T09:59:30;13.50;99.90
42833;DHT22;64089;51.478;5.692;2023-04-29T10:01:57;13.40;99.90
42833;DHT22;64089;51.478;5.692;2023-04-29T10:04:26;13.40;99.90
42833;DHT22;64089;51.478;5.692;2023-04-29T10:06:54;13.60;99.90
42833;DHT22;64089;51.478;5.692;2023-04-29T10:09:21;13.50;99.90
42833;DHT22;64089;51.478;5.692;2023-04-29T10:11:49;13.30;99.90
42833;DHT22;64089;51.478;5.692;2023-04-29T10:14:17;13.20;99.90
42833;DHT22;64089;51.478;5.692;2023-04-29T10:19:25;13.40;99.90
42833;DHT22;64089;51.478;5.692;2023-04-29T10:21:53;13.80;99.90
42833;DHT22;64089;51.478;5.692;2023-04-29T10:24:21;14.00;99.90
42833;DHT22;64089;51.478;5.692;2023-04-29T10:26:49;14.40;99.90
42833;DHT22;64089;51.478;5.692;2023-04-29T10:29:19;14.70;99.90
42833;DHT22;64089;51.478;5.692;2023-04-29T10:31:46;14.70;99.90
42833;DHT22;64089;51.478;5.692;2023-04-29T10:34:13;14.50;99.90
42833;DHT22;64089;51.478;5.692;2023-04-29T10:36:41;14.20;99.90
42833;DHT22;64089;51.478;5.692;2023-04-29T10:39:15;14.30;99.90
42833;DHT22;64089;51.478;5.692;2023-04-29T10:41:44;14.20;99.90
42833;DHT22;64089;51.478;5.692;2023-04-29T10:44:13;14.00;99.90
42833;DHT22;64089;51.478;5.692;2023-04-29T10:46:39;13.80;99.90
42833;DHT22;64089;51.478;5.692;2023-04-29T10:49:05;13.90;99.90
42833;DHT22;64089;51.478;5.692;2023-04-29T10:51:38;13.90;99.90
42833;DHT22;64089;51.478;5.692;2023-04-29T10:54:15;14.30;99.90
42833;DHT22;64089;51.478;5.692;2023-04-29T10:56:51;14.40;99.90
42833;DHT22;64089;51.478;5.692;2023-04-29T11:01:51;14.60;99.90
42833;DHT22;64089;51.478;5.692;2023-04-29T11:04:19;14.60;99.90
42833;DHT22;64089;51.478;5.692;2023-04-29T11:06:50;14.50;99.90
42833;DHT22;64089;51.478;5.692;2023-04-29T11:09:28;14.50;99.90
42833;DHT22;64089;51.478;5.692;2023-04-29T11:12:02;14.40;99.90
42833;DHT22;64089;51.478;5.692;2023-04-29T11:17:03;14.40;99.90
42833;DHT22;64089;51.478;5.692;2023-04-29T11:19:39;14.60;99.90
42833;DHT22;64089;51.478;5.692;2023-04-29T11:24:57;14.30;99.90
42833;DHT22;64089;51.478;5.692;2023-04-29T11:27:29;14.40;99.90
42833;DHT22;64089;51.478;5.692;2023-04-29T11:29:55;14.50;99.90
42833;DHT22;64089;51.478;5.692;2023-04-29T11:34:52;14.70;99.90
42833;DHT22;64089;51.478;5.692;2023-04-29T11:37:25;14.70;99.90
42833;DHT22;64089;51.478;5.692;2023-04-29T11:39:58;14.60;99.90
42833;DHT22;64089;51.478;5.692;2023-04-29T11:42:24;14.60;99.90
42833;DHT22;64089;51.478;5.692;2023-04-29T11:44:56;14.40;99.90
42833;DHT22;64089;51.478;5.692;2023-04-29T11:47:30;14.20;99.90
42833;DHT22;64089;51.478;5.692;2023-04-29T11:50:06;14.10;99.90
42833;DHT22;64089;51.478;5.692;2023-04-29T11:52:34;14.30;99.90
42833;DHT22;64089;51.478;5.692;2023-04-29T11:55:02;14.20;99.90
42833;DHT22;64089;51.478;5.692;2023-04-29T11:57:27;14.20;99.90
42833;DHT22;64089;51.478;5.692;2023-04-29T11:59:53;14.20;99.90
42833;DHT22;64089;51.478;5.692;2023-04-29T12:02:38;14.40;99.90
42833;DHT22;64089;51.478;5.692;2023-04-29T12:05:05;14.60;99.90
42833;DHT22;64089;51.478;5.692;2023-04-29T12:07:32;14.80;99.90
42833;DHT22;64089;51.478;5.692;2023-04-29T12:09:58;14.80;99.90
42833;DHT22;64089;51.478;5.692;2023-04-29T12:12:24;14.70;99.90
42833;DHT22;64089;51.478;5.692;2023-04-29T12:14:52;14.80;99.90
42833;DHT22;64089;51.478;5.692;2023-04-29T12:17:18;14.80;99.90
42833;DHT22;64089;51.478;5.692;2023-04-29T12:19:44;15.20;99.90
42833;DHT22;64089;51.478;5.692;2023-04-29T12:22:10;15.30;99.90
42833;DHT22;64089;51.478;5.692;2023-04-29T12:24:38;15.20;99.90
42833;DHT22;64089;51.478;5.692;2023-04-29T12:27:07;15.40;99.90
42833;DHT22;64089;51.478;5.692;2023-04-29T12:29:32;15.40;99.90
42833;DHT22;64089;51.478;5.692;2023-04-29T12:31:59;15.30;99.90
42833;DHT22;64089;51.478;5.692;2023-04-29T12:34:27;15.10;99.90
42833;DHT22;64089;51.478;5.692;2023-04-29T12:36:55;14.80;99.90
42833;DHT22;64089;51.478;5.692;2023-04-29T12:39:21;14.70;99.90
42833;DHT22;64089;51.478;5.692;2023-04-29T12:41:47;14.60;99.90
42833;DHT22;64089;51.478;5.692;2023-04-29T12:44:13;14.60;99.90
42833;DHT22;64089;51.478;5.692;2023-04-29T12:46:40;14.60;99.90
42833;DHT22;64089;51.478;5.692;2023-04-29T12:49:07;14.50;99.90
42833;DHT22;64089;51.478;5.692;2023-04-29T12:51:33;14.60;99.90
42833;DHT22;64089;51.478;5.692;2023-04-29T12:54:01;14.80;99.90
42833;DHT22;64089;51.478;5.692;2023-04-29T12:56:31;15.00;99.90
42833;DHT22;64089;51.478;5.692;2023-04-29T12:59:04;15.10;99.90
42833;DHT22;64089;51.478;5.692;2023-04-29T13:01:30;15.40;99.90
42833;DHT22;64089;51.478;5.692;2023-04-29T13:03:57;15.50;99.90
42833;DHT22;64089;51.478;5.692;2023-04-29T13:06:22;15.80;99.90
42833;DHT22;64089;51.478;5.692;2023-04-29T13:08:48;15.80;99.90
42833;DHT22;64089;51.478;5.692;2023-04-29T13:11:19;15.90;99.90
42833;DHT22;64089;51.478;5.692;2023-04-29T13:13:45;16.10;99.90
42833;DHT22;64089;51.478;5.692;2023-04-29T13:16:10;16.10;99.90
42833;DHT22;64089;51.478;5.692;2023-04-29T13:18:36;16.20;99.90
42833;DHT22;64089;51.478;5.692;2023-04-29T13:21:02;16.40;99.90
42833;DHT22;64089;51.478;5.692;2023-04-29T13:23:27;16.60;99.90
42833;DHT22;64089;51.478;5.692;2023-04-29T13:25:53;16.70;99.90
42833;DHT22;64089;51.478;5.692;2023-04-29T13:28:18;16.80;99.90
42833;DHT22;64089;51.478;5.692;2023-04-29T13:30:44;16.80;99.90
42833;DHT22;64089;51.478;5.692;2023-04-29T13:33:09;17.00;99.90
42833;DHT22;64089;51.478;5.692;2023-04-29T13:35:35;16.90;99.90
42833;DHT22;64089;51.478;5.692;2023-04-29T13:38:02;16.60;99.90
42833;DHT22;64089;51.478;5.692;2023-04-29T13:40:28;16.60;99.90
42833;DHT22;64089;51.478;5.692;2023-04-29T13:42:54;16.60;99.90
42833;DHT22;64089;51.478;5.692;2023-04-29T13:45:20;16.70;99.90
42833;DHT22;64089;51.478;5.692;2023-04-29T13:47:45;16.60;99.90
42833;DHT22;64089;51.478;5.692;2023-04-29T13:50:11;16.50;99.90
42833;DHT22;64089;51.478;5.692;2023-04-29T13:52:37;16.60;99.90
42833;DHT22;64089;51.478;5.692;2023-04-29T13:55:03;16.40;99.90
42833;DHT22;64089;51.478;5.692;2023-04-29T13:57:28;16.40;99.90
42833;DHT22;64089;51.478;5.692;2023-04-29T13:59:54;16.30;99.90
42833;DHT22;64089;51.478;5.692;2023-04-29T14:02:20;16.20;99.90
42833;DHT22;64089;51.478;5.692;2023-04-29T14:04:46;16.50;99.90
42833;DHT22;64089;51.478;5.692;2023-04-29T14:07:18;16.70;99.90
42833;DHT22;64089;51.478;5.692;2023-04-29T14:09:44;16.70;99.90
42833;DHT22;64089;51.478;5.692;2023-04-29T14:12:10;16.70;99.90
42833;DHT22;64089;51.478;5.692;2023-04-29T14:14:36;17.10;99.90
42833;DHT22;64089;51.478;5.692;2023-04-29T14:17:01;17.50;99.90
42833;DHT22;64089;51.478;5.692;2023-04-29T14:19:28;17.40;99.90
42833;DHT22;64089;51.478;5.692;2023-04-29T14:21:53;17.10;99.90
42833;DHT22;64089;51.478;5.692;2023-04-29T14:24:19;16.80;99.90
42833;DHT22;64089;51.478;5.692;2023-04-29T14:26:44;16.50;99.90
42833;DHT22;64089;51.478;5.692;2023-04-29T14:29:10;16.40;99.90
42833;DHT22;64089;51.478;5.692;2023-04-29T14:31:36;16.90;99.90
42833;DHT22;64089;51.478;5.692;2023-04-29T14:34:06;16.80;99.90
42833;DHT22;64089;51.478;5.692;2023-04-29T14:36:31;16.60;99.90
42833;DHT22;64089;51.478;5.692;2023-04-29T14:38:58;16.10;99.90
42833;DHT22;64089;51.478;5.692;2023-04-29T14:41:24;16.30;99.90
42833;DHT22;64089;51.478;5.692;2023-04-29T14:43:53;16.50;99.90
42833;DHT22;64089;51.478;5.692;2023-04-29T14:46:19;16.40;99.90
42833;DHT22;64089;51.478;5.692;2023-04-29T14:48:46;16.40;99.90
42833;DHT22;64089;51.478;5.692;2023-04-29T14:51:12;16.60;99.90
42833;DHT22;64089;51.478;5.692;2023-04-29T14:53:38;16.80;99.90
42833;DHT22;64089;51.478;5.692;2023-04-29T14:56:03;17.00;99.90
42833;DHT22;64089;51.478;5.692;2023-04-29T14:58:29;16.80;99.90
42833;DHT22;64089;51.478;5.692;2023-04-29T15:00:55;16.90;99.90
42833;DHT22;64089;51.478;5.692;2023-04-29T15:03:21;17.00;99.90
42833;DHT22;64089;51.478;5.692;2023-04-29T15:05:48;17.00;99.90
42833;DHT22;64089;51.478;5.692;2023-04-29T15:08:17;17.20;99.90
42833;DHT22;64089;51.478;5.692;2023-04-29T15:10:43;17.20;99.90
42833;DHT22;64089;51.478;5.692;2023-04-29T15:13:11;17.20;99.90
42833;DHT22;64089;51.478;5.692;2023-04-29T15:15:37;17.10;99.90
42833;DHT22;64089;51.478;5.692;2023-04-29T15:18:03;17.00;99.90
42833;DHT22;64089;51.478;5.692;2023-04-29T15:20:30;17.00;99.90
42833;DHT22;64089;51.478;5.692;2023-04-29T15:22:57;17.30;99.90
42833;DHT22;64089;51.478;5.692;2023-04-29T15:25:22;17.30;99.90
42833;DHT22;64089;51.478;5.692;2023-04-29T15:27:48;17.30;99.90
42833;DHT22;64089;51.478;5.692;2023-04-29T15:30:13;16.80;99.90
42833;DHT22;64089;51.478;5.692;2023-04-29T15:32:39;16.60;99.90
42833;DHT22;64089;51.478;5.692;2023-04-29T15:35:05;16.80;99.90
42833;DHT22;64089;51.478;5.692;2023-04-29T15:37:31;16.90;99.90
42833;DHT22;64089;51.478;5.692;2023-04-29T15:40:00;16.90;99.90
42833;DHT22;64089;51.478;5.692;2023-04-29T15:42:26;17.20;99.90
42833;DHT22;64089;51.478;5.692;2023-04-29T15:44:52;17.40;99.90
42833;DHT22;64089;51.478;5.692;2023-04-29T15:47:17;17.30;99.90
42833;DHT22;64089;51.478;5.692;2023-04-29T15:49:43;17.10;99.90
42833;DHT22;64089;51.478;5.692;2023-04-29T15:52:09;17.10;99.90
42833;DHT22;64089;51.478;5.692;2023-04-29T15:54:35;17.20;99.90
42833;DHT22;64089;51.478;5.692;2023-04-29T15:57:01;17.20;99.90
42833;DHT22;64089;51.478;5.692;2023-04-29T15:59:31;17.70;99.90
42833;DHT22;64089;51.478;5.692;2023-04-29T16:01:56;17.90;99.90
42833;DHT22;64089;51.478;5.692;2023-04-29T16:04:22;18.30;99.90
42833;DHT22;64089;51.478;5.692;2023-04-29T16:06:48;18.50;99.90
42833;DHT22;64089;51.478;5.692;2023-04-29T16:09:13;18.60;99.90
42833;DHT22;64089;51.478;5.692;2023-04-29T16:11:39;18.40;99.90